sensor_id;sensor_type;location;lat;lon;timestamp;P1;durP1;ratioP1;P2;durP2;ratioP2
53875;SDS011;39789;53.216;5.624;2024-03-25T00:02:12;15.07;;;4.45;;
53875;SDS011;39789;53.216;5.624;2024-03-25T00:04:38;23.73;;;4.43;;
53875;SDS011;39789;53.216;5.624;2024-03-25T00:07:04;11.48;;;3.85;;
53875;SDS011;39789;53.216;5.624;2024-03-25T00:09:30;13.20;;;4.47;;
53875;SDS011;39789;53.216;5.624;2024-03-25T00:11:55;15.88;;;5.28;;
53875;SDS011;39789;53.216;5.624;2024-03-25T00:14:21;18.67;;;4.43;;
53875;SDS011;39789;53.216;5.624;2024-03-25T00:16:47;12.30;;;4.03;;
53875;SDS011;39789;53.216;5.624;2024-03-25T00:19:13;15.05;;;4.60;;
53875;SDS011;39789;53.216;5.624;2024-03-25T00:21:39;18.58;;;4.18;;
53875;SDS011;39789;53.216;5.624;2024-03-25T00:24:05;12.32;;;4.68;;
53875;SDS011;39789;53.216;5.624;2024-03-25T00:26:31;11.60;;;4.18;;
53875;SDS011;39789;53.216;5.624;2024-03-25T00:28:57;13.25;;;4.28;;
53875;SDS011;39789;53.216;5.624;2024-03-25T00:31:23;12.93;;;3.58;;
53875;SDS011;39789;53.216;5.624;2024-03-25T00:33:49;19.40;;;5.38;;
53875;SDS011;39789;53.216;5.624;2024-03-25T00:36:15;12.10;;;3.58;;
53875;SDS011;39789;53.216;5.624;2024-03-25T00:38:40;10.45;;;3.25;;
53875;SDS011;39789;53.216;5.624;2024-03-25T00:41:06;10.45;;;3.00;;
53875;SDS011;39789;53.216;5.624;2024-03-25T00:43:32;11.93;;;3.97;;
53875;SDS011;39789;53.216;5.624;2024-03-25T00:45:58;11.07;;;2.95;;
53875;SDS011;39789;53.216;5.624;2024-03-25T00:48:24;9.90;;;4.18;;
53875;SDS011;39789;53.216;5.624;2024-03-25T00:50:49;10.70;;;2.95;;
53875;SDS011;39789;53.216;5.624;2024-03-25T00:53:15;11.48;;;3.40;;
53875;SDS011;39789;53.216;5.624;2024-03-25T00:55:41;12.10;;;3.05;;
53875;SDS011;39789;53.216;5.624;2024-03-25T00:58:07;10.43;;;3.67;;
53875;SDS011;39789;53.216;5.624;2024-03-25T01:00:32;11.23;;;3.25;;
53875;SDS011;39789;53.216;5.624;2024-03-25T01:02:58;8.23;;;3.58;;
53875;SDS011;39789;53.216;5.624;2024-03-25T01:05:24;15.10;;;3.90;;
53875;SDS011;39789;53.216;5.624;2024-03-25T01:07:49;14.70;;;3.28;;
53875;SDS011;39789;53.216;5.624;2024-03-25T01:10:15;10.35;;;3.30;;
53875;SDS011;39789;53.216;5.624;2024-03-25T01:12:41;10.88;;;3.47;;
53875;SDS011;39789;53.216;5.624;2024-03-25T01:15:07;10.07;;;3.15;;
53875;SDS011;39789;53.216;5.624;2024-03-25T01:17:35;12.10;;;3.75;;
53875;SDS011;39789;53.216;5.624;2024-03-25T01:20:01;13.18;;;3.22;;
53875;SDS011;39789;53.216;5.624;2024-03-25T01:22:29;8.55;;;2.78;;
53875;SDS011;39789;53.216;5.624;2024-03-25T01:24:57;11.60;;;3.85;;
53875;SDS011;39789;53.216;5.624;2024-03-25T01:27:23;10.40;;;3.00;;
53875;SDS011;39789;53.216;5.624;2024-03-25T01:29:48;10.02;;;3.45;;
53875;SDS011;39789;53.216;5.624;2024-03-25T01:32:14;15.57;;;4.22;;
53875;SDS011;39789;53.216;5.624;2024-03-25T01:34:40;9.85;;;3.05;;
53875;SDS011;39789;53.216;5.624;2024-03-25T01:37:05;9.57;;;3.55;;
53875;SDS011;39789;53.216;5.624;2024-03-25T01:39:31;14.02;;;3.45;;
53875;SDS011;39789;53.216;5.624;2024-03-25T01:41:57;9.48;;;3.05;;
53875;SDS011;39789;53.216;5.624;2024-03-25T01:44:22;9.95;;;3.38;;
53875;SDS011;39789;53.216;5.624;2024-03-25T01:46:49;15.00;;;3.10;;
53875;SDS011;39789;53.216;5.624;2024-03-25T01:49:17;12.05;;;3.65;;
53875;SDS011;39789;53.216;5.624;2024-03-25T01:51:44;11.98;;;3.00;;
53875;SDS011;39789;53.216;5.624;2024-03-25T01:54:09;14.05;;;4.00;;
53875;SDS011;39789;53.216;5.624;2024-03-25T01:56:35;10.13;;;2.80;;
53875;SDS011;39789;53.216;5.624;2024-03-25T01:59:03;9.55;;;3.70;;
53875;SDS011;39789;53.216;5.624;2024-03-25T02:01:29;11.52;;;3.15;;
53875;SDS011;39789;53.216;5.624;2024-03-25T02:03:55;9.52;;;2.92;;
53875;SDS011;39789;53.216;5.624;2024-03-25T02:06:21;8.77;;;2.67;;
53875;SDS011;39789;53.216;5.624;2024-03-25T02:08:49;9.70;;;3.53;;
53875;SDS011;39789;53.216;5.624;2024-03-25T02:11:15;8.57;;;2.83;;
53875;SDS011;39789;53.216;5.624;2024-03-25T02:13:42;6.72;;;2.60;;
53875;SDS011;39789;53.216;5.624;2024-03-25T02:16:08;9.35;;;3.45;;
53875;SDS011;39789;53.216;5.624;2024-03-25T02:18:33;10.32;;;3.25;;
53875;SDS011;39789;53.216;5.624;2024-03-25T02:20:59;14.93;;;3.75;;
53875;SDS011;39789;53.216;5.624;2024-03-25T02:23:25;10.00;;;3.03;;
53875;SDS011;39789;53.216;5.624;2024-03-25T02:25:55;14.05;;;3.83;;
53875;SDS011;39789;53.216;5.624;2024-03-25T02:28:20;15.30;;;3.92;;
53875;SDS011;39789;53.216;5.624;2024-03-25T02:30:46;16.10;;;4.60;;
53875;SDS011;39789;53.216;5.624;2024-03-25T02:33:12;12.63;;;4.10;;
53875;SDS011;39789;53.216;5.624;2024-03-25T02:35:39;16.27;;;4.35;;
53875;SDS011;39789;53.216;5.624;2024-03-25T02:38:06;11.93;;;3.53;;
53875;SDS011;39789;53.216;5.624;2024-03-25T02:40:33;11.30;;;4.03;;
53875;SDS011;39789;53.216;5.624;2024-03-25T02:43:00;10.93;;;3.40;;
53875;SDS011;39789;53.216;5.624;2024-03-25T02:45:26;14.88;;;4.35;;
53875;SDS011;39789;53.216;5.624;2024-03-25T02:47:52;8.60;;;3.20;;
53875;SDS011;39789;53.216;5.624;2024-03-25T02:50:17;14.20;;;3.85;;
53875;SDS011;39789;53.216;5.624;2024-03-25T02:52:43;13.68;;;4.05;;
53875;SDS011;39789;53.216;5.624;2024-03-25T02:55:09;9.07;;;3.05;;
53875;SDS011;39789;53.216;5.624;2024-03-25T02:57:34;12.45;;;4.05;;
53875;SDS011;39789;53.216;5.624;2024-03-25T03:00:00;8.00;;;3.00;;
53875;SDS011;39789;53.216;5.624;2024-03-25T03:02:26;12.05;;;3.47;;
53875;SDS011;39789;53.216;5.624;2024-03-25T03:04:51;12.65;;;3.58;;
53875;SDS011;39789;53.216;5.624;2024-03-25T03:07:17;10.30;;;2.80;;
53875;SDS011;39789;53.216;5.624;2024-03-25T03:09:43;9.63;;;2.72;;
53875;SDS011;39789;53.216;5.624;2024-03-25T03:12:08;11.48;;;3.03;;
53875;SDS011;39789;53.216;5.624;2024-03-25T03:14:34;9.48;;;2.80;;
53875;SDS011;39789;53.216;5.624;2024-03-25T03:17:00;13.80;;;3.55;;
53875;SDS011;39789;53.216;5.624;2024-03-25T03:19:30;9.68;;;3.38;;
53875;SDS011;39789;53.216;5.624;2024-03-25T03:21:56;11.38;;;3.60;;
53875;SDS011;39789;53.216;5.624;2024-03-25T03:24:22;11.25;;;2.90;;
53875;SDS011;39789;53.216;5.624;2024-03-25T03:26:48;9.90;;;3.05;;
53875;SDS011;39789;53.216;5.624;2024-03-25T03:29:14;11.05;;;3.20;;
53875;SDS011;39789;53.216;5.624;2024-03-25T03:31:39;8.23;;;2.72;;
53875;SDS011;39789;53.216;5.624;2024-03-25T03:34:05;18.23;;;3.70;;
53875;SDS011;39789;53.216;5.624;2024-03-25T03:36:31;11.57;;;3.17;;
53875;SDS011;39789;53.216;5.624;2024-03-25T03:38:56;6.95;;;2.72;;
53875;SDS011;39789;53.216;5.624;2024-03-25T03:41:22;12.60;;;3.60;;
53875;SDS011;39789;53.216;5.624;2024-03-25T03:43:48;20.92;;;3.45;;
53875;SDS011;39789;53.216;5.624;2024-03-25T03:46:13;8.98;;;2.58;;
53875;SDS011;39789;53.216;5.624;2024-03-25T03:48:39;16.20;;;3.58;;
53875;SDS011;39789;53.216;5.624;2024-03-25T03:51:05;13.05;;;4.15;;
53875;SDS011;39789;53.216;5.624;2024-03-25T03:53:31;15.15;;;4.57;;
53875;SDS011;39789;53.216;5.624;2024-03-25T03:55:58;10.10;;;3.60;;
53875;SDS011;39789;53.216;5.624;2024-03-25T03:58:27;11.85;;;3.33;;
53875;SDS011;39789;53.216;5.624;2024-03-25T04:00:53;14.18;;;3.78;;
53875;SDS011;39789;53.216;5.624;2024-03-25T04:03:19;16.30;;;4.50;;
53875;SDS011;39789;53.216;5.624;2024-03-25T04:05:45;18.33;;;3.90;;
53875;SDS011;39789;53.216;5.624;2024-03-25T04:08:10;13.13;;;4.00;;
53875;SDS011;39789;53.216;5.624;2024-03-25T04:10:36;11.73;;;4.03;;
53875;SDS011;39789;53.216;5.624;2024-03-25T04:13:03;12.35;;;4.43;;
53875;SDS011;39789;53.216;5.624;2024-03-25T04:15:32;14.98;;;3.88;;
53875;SDS011;39789;53.216;5.624;2024-03-25T04:17:59;12.43;;;4.13;;
53875;SDS011;39789;53.216;5.624;2024-03-25T04:20:26;14.07;;;4.13;;
53875;SDS011;39789;53.216;5.624;2024-03-25T04:22:52;9.35;;;3.35;;
53875;SDS011;39789;53.216;5.624;2024-03-25T04:25:18;10.48;;;3.53;;
53875;SDS011;39789;53.216;5.624;2024-03-25T04:27:43;10.40;;;3.17;;
53875;SDS011;39789;53.216;5.624;2024-03-25T04:30:10;9.00;;;2.75;;
53875;SDS011;39789;53.216;5.624;2024-03-25T04:32:36;13.60;;;3.05;;
53875;SDS011;39789;53.216;5.624;2024-03-25T04:35:04;8.32;;;2.92;;
53875;SDS011;39789;53.216;5.624;2024-03-25T04:37:31;8.18;;;2.70;;
53875;SDS011;39789;53.216;5.624;2024-03-25T04:39:57;10.75;;;2.58;;
53875;SDS011;39789;53.216;5.624;2024-03-25T04:42:23;4.75;;;2.40;;
53875;SDS011;39789;53.216;5.624;2024-03-25T04:44:49;6.22;;;2.00;;
53875;SDS011;39789;53.216;5.624;2024-03-25T04:47:15;6.55;;;2.38;;
53875;SDS011;39789;53.216;5.624;2024-03-25T04:49:41;8.02;;;2.42;;
53875;SDS011;39789;53.216;5.624;2024-03-25T04:52:07;8.10;;;2.47;;
53875;SDS011;39789;53.216;5.624;2024-03-25T04:54:33;6.65;;;2.60;;
53875;SDS011;39789;53.216;5.624;2024-03-25T04:56:58;8.70;;;2.47;;
53875;SDS011;39789;53.216;5.624;2024-03-25T04:59:24;7.53;;;2.55;;
53875;SDS011;39789;53.216;5.624;2024-03-25T05:01:50;7.28;;;2.22;;
53875;SDS011;39789;53.216;5.624;2024-03-25T05:04:17;9.25;;;2.80;;
53875;SDS011;39789;53.216;5.624;2024-03-25T05:06:43;7.43;;;2.30;;
53875;SDS011;39789;53.216;5.624;2024-03-25T05:09:09;7.07;;;2.65;;
53875;SDS011;39789;53.216;5.624;2024-03-25T05:11:35;8.18;;;2.65;;
53875;SDS011;39789;53.216;5.624;2024-03-25T05:14:01;9.48;;;2.75;;
53875;SDS011;39789;53.216;5.624;2024-03-25T05:16:26;6.75;;;2.30;;
53875;SDS011;39789;53.216;5.624;2024-03-25T05:18:52;10.98;;;3.28;;
53875;SDS011;39789;53.216;5.624;2024-03-25T05:21:18;11.23;;;3.58;;
53875;SDS011;39789;53.216;5.624;2024-03-25T05:23:43;8.05;;;2.50;;
53875;SDS011;39789;53.216;5.624;2024-03-25T05:26:09;8.43;;;2.28;;
53875;SDS011;39789;53.216;5.624;2024-03-25T05:28:35;7.30;;;2.83;;
53875;SDS011;39789;53.216;5.624;2024-03-25T05:31:07;11.88;;;3.50;;
53875;SDS011;39789;53.216;5.624;2024-03-25T05:33:33;10.10;;;3.60;;
53875;SDS011;39789;53.216;5.624;2024-03-25T05:35:59;6.68;;;2.83;;
53875;SDS011;39789;53.216;5.624;2024-03-25T05:38:26;12.95;;;3.92;;
53875;SDS011;39789;53.216;5.624;2024-03-25T05:40:52;9.00;;;2.83;;
53875;SDS011;39789;53.216;5.624;2024-03-25T05:43:17;12.20;;;3.72;;
53875;SDS011;39789;53.216;5.624;2024-03-25T05:45:50;13.93;;;3.65;;
53875;SDS011;39789;53.216;5.624;2024-03-25T05:48:19;11.65;;;3.50;;
53875;SDS011;39789;53.216;5.624;2024-03-25T05:50:45;13.25;;;4.25;;
53875;SDS011;39789;53.216;5.624;2024-03-25T05:53:11;10.05;;;3.78;;
53875;SDS011;39789;53.216;5.624;2024-03-25T05:55:37;11.43;;;4.00;;
53875;SDS011;39789;53.216;5.624;2024-03-25T05:58:03;9.77;;;3.45;;
53875;SDS011;39789;53.216;5.624;2024-03-25T06:00:29;10.57;;;3.08;;
53875;SDS011;39789;53.216;5.624;2024-03-25T06:02:56;8.38;;;2.90;;
53875;SDS011;39789;53.216;5.624;2024-03-25T06:05:22;8.15;;;3.17;;
53875;SDS011;39789;53.216;5.624;2024-03-25T06:07:47;13.57;;;4.15;;
53875;SDS011;39789;53.216;5.624;2024-03-25T06:10:13;11.57;;;3.42;;
53875;SDS011;39789;53.216;5.624;2024-03-25T06:12:39;10.85;;;3.40;;
53875;SDS011;39789;53.216;5.624;2024-03-25T06:15:05;14.25;;;3.65;;
53875;SDS011;39789;53.216;5.624;2024-03-25T06:17:31;10.25;;;3.30;;
53875;SDS011;39789;53.216;5.624;2024-03-25T06:19:57;5.53;;;2.55;;
53875;SDS011;39789;53.216;5.624;2024-03-25T06:22:22;8.45;;;2.90;;
53875;SDS011;39789;53.216;5.624;2024-03-25T06:24:48;6.53;;;2.30;;
53875;SDS011;39789;53.216;5.624;2024-03-25T06:27:15;7.13;;;2.30;;
53875;SDS011;39789;53.216;5.624;2024-03-25T06:29:41;10.27;;;3.22;;
53875;SDS011;39789;53.216;5.624;2024-03-25T06:32:08;8.68;;;2.22;;
53875;SDS011;39789;53.216;5.624;2024-03-25T06:34:52;8.03;;;3.00;;
53875;SDS011;39789;53.216;5.624;2024-03-25T06:37:18;10.85;;;3.03;;
53875;SDS011;39789;53.216;5.624;2024-03-25T06:39:44;8.63;;;2.55;;
53875;SDS011;39789;53.216;5.624;2024-03-25T06:42:09;8.65;;;2.55;;
53875;SDS011;39789;53.216;5.624;2024-03-25T06:44:35;8.88;;;2.63;;
53875;SDS011;39789;53.216;5.624;2024-03-25T06:47:00;12.60;;;2.92;;
53875;SDS011;39789;53.216;5.624;2024-03-25T06:49:26;11.30;;;2.88;;
53875;SDS011;39789;53.216;5.624;2024-03-25T06:51:52;8.32;;;3.03;;
53875;SDS011;39789;53.216;5.624;2024-03-25T06:54:17;9.45;;;3.10;;
53875;SDS011;39789;53.216;5.624;2024-03-25T06:56:43;10.48;;;2.83;;
53875;SDS011;39789;53.216;5.624;2024-03-25T06:59:09;10.75;;;2.92;;
53875;SDS011;39789;53.216;5.624;2024-03-25T07:01:34;12.00;;;2.83;;
53875;SDS011;39789;53.216;5.624;2024-03-25T07:04:00;6.68;;;2.58;;
53875;SDS011;39789;53.216;5.624;2024-03-25T07:06:26;6.00;;;2.30;;
53875;SDS011;39789;53.216;5.624;2024-03-25T07:08:51;5.82;;;2.10;;
53875;SDS011;39789;53.216;5.624;2024-03-25T07:11:18;7.45;;;2.50;;
53875;SDS011;39789;53.216;5.624;2024-03-25T07:13:44;8.80;;;2.70;;
53875;SDS011;39789;53.216;5.624;2024-03-25T07:16:10;7.80;;;2.78;;
53875;SDS011;39789;53.216;5.624;2024-03-25T07:18:36;8.80;;;3.28;;
53875;SDS011;39789;53.216;5.624;2024-03-25T07:21:01;8.23;;;3.17;;
53875;SDS011;39789;53.216;5.624;2024-03-25T07:23:27;12.00;;;3.25;;
53875;SDS011;39789;53.216;5.624;2024-03-25T07:25:53;7.05;;;2.42;;
53875;SDS011;39789;53.216;5.624;2024-03-25T07:28:18;9.93;;;2.28;;
53875;SDS011;39789;53.216;5.624;2024-03-25T07:30:44;7.88;;;2.70;;
53875;SDS011;39789;53.216;5.624;2024-03-25T07:33:10;8.50;;;2.60;;
53875;SDS011;39789;53.216;5.624;2024-03-25T07:35:36;7.55;;;2.85;;
53875;SDS011;39789;53.216;5.624;2024-03-25T07:38:02;9.88;;;2.90;;
53875;SDS011;39789;53.216;5.624;2024-03-25T07:40:28;8.80;;;2.80;;
53875;SDS011;39789;53.216;5.624;2024-03-25T07:42:54;14.45;;;2.63;;
53875;SDS011;39789;53.216;5.624;2024-03-25T07:45:20;11.38;;;3.00;;
53875;SDS011;39789;53.216;5.624;2024-03-25T07:47:46;12.18;;;2.67;;
53875;SDS011;39789;53.216;5.624;2024-03-25T07:50:12;13.30;;;3.25;;
53875;SDS011;39789;53.216;5.624;2024-03-25T07:52:38;8.23;;;2.60;;
53875;SDS011;39789;53.216;5.624;2024-03-25T07:55:08;11.00;;;2.90;;
53875;SDS011;39789;53.216;5.624;2024-03-25T07:57:33;9.80;;;2.90;;
53875;SDS011;39789;53.216;5.624;2024-03-25T07:59:59;10.75;;;3.35;;
53875;SDS011;39789;53.216;5.624;2024-03-25T08:02:25;8.18;;;2.83;;
53875;SDS011;39789;53.216;5.624;2024-03-25T08:04:51;8.48;;;3.28;;
53875;SDS011;39789;53.216;5.624;2024-03-25T08:07:17;12.30;;;3.30;;
53875;SDS011;39789;53.216;5.624;2024-03-25T08:09:42;11.38;;;3.05;;
53875;SDS011;39789;53.216;5.624;2024-03-25T08:12:09;21.40;;;4.15;;
53875;SDS011;39789;53.216;5.624;2024-03-25T08:14:35;10.48;;;3.63;;
53875;SDS011;39789;53.216;5.624;2024-03-25T08:17:01;8.60;;;3.13;;
53875;SDS011;39789;53.216;5.624;2024-03-25T08:19:29;15.90;;;4.20;;
53875;SDS011;39789;53.216;5.624;2024-03-25T08:21:56;12.43;;;3.50;;
53875;SDS011;39789;53.216;5.624;2024-03-25T08:24:23;12.63;;;3.28;;
53875;SDS011;39789;53.216;5.624;2024-03-25T08:26:49;13.40;;;3.47;;
53875;SDS011;39789;53.216;5.624;2024-03-25T08:29:15;11.48;;;3.22;;
53875;SDS011;39789;53.216;5.624;2024-03-25T08:31:41;12.23;;;3.38;;
53875;SDS011;39789;53.216;5.624;2024-03-25T08:34:07;11.95;;;3.70;;
53875;SDS011;39789;53.216;5.624;2024-03-25T08:36:33;13.85;;;4.68;;
53875;SDS011;39789;53.216;5.624;2024-03-25T08:38:59;9.30;;;3.53;;
53875;SDS011;39789;53.216;5.624;2024-03-25T08:41:25;9.75;;;2.63;;
53875;SDS011;39789;53.216;5.624;2024-03-25T08:43:51;8.63;;;3.08;;
53875;SDS011;39789;53.216;5.624;2024-03-25T08:46:17;14.10;;;3.33;;
53875;SDS011;39789;53.216;5.624;2024-03-25T08:48:43;11.38;;;3.33;;
53875;SDS011;39789;53.216;5.624;2024-03-25T08:51:09;15.35;;;3.90;;
53875;SDS011;39789;53.216;5.624;2024-03-25T08:53:35;11.18;;;3.17;;
53875;SDS011;39789;53.216;5.624;2024-03-25T08:56:01;14.40;;;3.50;;
53875;SDS011;39789;53.216;5.624;2024-03-25T08:58:27;9.13;;;3.08;;
53875;SDS011;39789;53.216;5.624;2024-03-25T09:00:53;9.98;;;3.10;;
53875;SDS011;39789;53.216;5.624;2024-03-25T09:03:19;14.30;;;3.17;;
53875;SDS011;39789;53.216;5.624;2024-03-25T09:05:45;12.00;;;3.85;;
53875;SDS011;39789;53.216;5.624;2024-03-25T09:08:11;18.42;;;3.97;;
53875;SDS011;39789;53.216;5.624;2024-03-25T09:10:38;11.35;;;3.45;;
53875;SDS011;39789;53.216;5.624;2024-03-25T09:13:23;13.27;;;3.20;;
53875;SDS011;39789;53.216;5.624;2024-03-25T09:15:49;7.82;;;2.78;;
53875;SDS011;39789;53.216;5.624;2024-03-25T09:18:15;13.18;;;3.92;;
53875;SDS011;39789;53.216;5.624;2024-03-25T09:20:42;14.82;;;4.07;;
53875;SDS011;39789;53.216;5.624;2024-03-25T09:23:07;11.30;;;3.75;;
53875;SDS011;39789;53.216;5.624;2024-03-25T09:25:33;16.67;;;3.97;;
53875;SDS011;39789;53.216;5.624;2024-03-25T09:27:59;11.95;;;3.70;;
53875;SDS011;39789;53.216;5.624;2024-03-25T09:30:26;12.13;;;3.42;;
53875;SDS011;39789;53.216;5.624;2024-03-25T09:32:52;11.40;;;3.53;;
53875;SDS011;39789;53.216;5.624;2024-03-25T09:35:18;12.13;;;3.55;;
53875;SDS011;39789;53.216;5.624;2024-03-25T09:37:43;9.07;;;3.15;;
53875;SDS011;39789;53.216;5.624;2024-03-25T09:40:10;12.27;;;3.35;;
53875;SDS011;39789;53.216;5.624;2024-03-25T09:42:45;16.83;;;4.20;;
53875;SDS011;39789;53.216;5.624;2024-03-25T09:45:13;10.02;;;3.28;;
53875;SDS011;39789;53.216;5.624;2024-03-25T09:47:43;12.15;;;3.53;;
53875;SDS011;39789;53.216;5.624;2024-03-25T09:50:12;9.85;;;3.20;;
53875;SDS011;39789;53.216;5.624;2024-03-25T09:52:39;9.23;;;2.63;;
53875;SDS011;39789;53.216;5.624;2024-03-25T09:55:05;9.77;;;2.92;;
53875;SDS011;39789;53.216;5.624;2024-03-25T09:57:31;11.80;;;3.95;;
53875;SDS011;39789;53.216;5.624;2024-03-25T09:59:57;13.73;;;3.38;;
53875;SDS011;39789;53.216;5.624;2024-03-25T10:02:28;13.23;;;3.05;;
53875;SDS011;39789;53.216;5.624;2024-03-25T10:04:55;10.23;;;3.75;;
53875;SDS011;39789;53.216;5.624;2024-03-25T10:07:24;12.43;;;3.75;;
53875;SDS011;39789;53.216;5.624;2024-03-25T10:09:50;9.93;;;3.75;;
53875;SDS011;39789;53.216;5.624;2024-03-25T10:12:16;12.82;;;4.22;;
53875;SDS011;39789;53.216;5.624;2024-03-25T10:14:46;8.98;;;3.25;;
53875;SDS011;39789;53.216;5.624;2024-03-25T10:17:13;8.77;;;3.47;;
53875;SDS011;39789;53.216;5.624;2024-03-25T10:19:39;13.50;;;2.85;;
53875;SDS011;39789;53.216;5.624;2024-03-25T10:22:05;8.52;;;2.80;;
53875;SDS011;39789;53.216;5.624;2024-03-25T10:24:36;10.55;;;2.92;;
53875;SDS011;39789;53.216;5.624;2024-03-25T10:29:46;10.18;;;3.03;;
53875;SDS011;39789;53.216;5.624;2024-03-25T10:32:13;9.45;;;3.28;;
53875;SDS011;39789;53.216;5.624;2024-03-25T10:34:39;8.30;;;3.90;;
53875;SDS011;39789;53.216;5.624;2024-03-25T10:37:08;8.23;;;3.13;;
53875;SDS011;39789;53.216;5.624;2024-03-25T10:39:38;7.95;;;2.65;;
53875;SDS011;39789;53.216;5.624;2024-03-25T10:42:06;10.63;;;3.00;;
53875;SDS011;39789;53.216;5.624;2024-03-25T10:44:33;11.40;;;3.45;;
53875;SDS011;39789;53.216;5.624;2024-03-25T10:47:00;11.00;;;2.75;;
53875;SDS011;39789;53.216;5.624;2024-03-25T10:49:41;8.95;;;3.10;;
53875;SDS011;39789;53.216;5.624;2024-03-25T10:52:20;9.15;;;3.25;;
53875;SDS011;39789;53.216;5.624;2024-03-25T10:54:48;8.85;;;3.25;;
53875;SDS011;39789;53.216;5.624;2024-03-25T10:57:15;11.35;;;2.97;;
53875;SDS011;39789;53.216;5.624;2024-03-25T10:59:42;7.20;;;3.03;;
53875;SDS011;39789;53.216;5.624;2024-03-25T11:02:08;8.40;;;2.58;;
53875;SDS011;39789;53.216;5.624;2024-03-25T11:04:36;13.07;;;3.67;;
53875;SDS011;39789;53.216;5.624;2024-03-25T11:07:06;7.57;;;2.58;;
53875;SDS011;39789;53.216;5.624;2024-03-25T11:09:39;11.43;;;3.03;;
53875;SDS011;39789;53.216;5.624;2024-03-25T11:12:06;10.60;;;2.33;;
53875;SDS011;39789;53.216;5.624;2024-03-25T11:14:35;10.25;;;3.08;;
53875;SDS011;39789;53.216;5.624;2024-03-25T11:17:01;6.95;;;2.72;;
53875;SDS011;39789;53.216;5.624;2024-03-25T11:19:39;6.72;;;2.78;;
53875;SDS011;39789;53.216;5.624;2024-03-25T11:22:09;9.70;;;3.05;;
53875;SDS011;39789;53.216;5.624;2024-03-25T11:24:35;8.05;;;2.80;;
53875;SDS011;39789;53.216;5.624;2024-03-25T11:27:07;8.77;;;2.40;;
53875;SDS011;39789;53.216;5.624;2024-03-25T11:29:33;11.70;;;3.15;;
53875;SDS011;39789;53.216;5.624;2024-03-25T11:32:05;9.00;;;2.78;;
53875;SDS011;39789;53.216;5.624;2024-03-25T11:34:32;10.95;;;3.08;;
53875;SDS011;39789;53.216;5.624;2024-03-25T11:36:59;11.30;;;3.17;;
53875;SDS011;39789;53.216;5.624;2024-03-25T11:39:25;9.05;;;2.85;;
53875;SDS011;39789;53.216;5.624;2024-03-25T11:41:53;11.52;;;3.40;;
53875;SDS011;39789;53.216;5.624;2024-03-25T11:44:19;11.70;;;3.38;;
53875;SDS011;39789;53.216;5.624;2024-03-25T11:46:47;7.57;;;3.17;;
53875;SDS011;39789;53.216;5.624;2024-03-25T11:49:14;7.28;;;2.90;;
53875;SDS011;39789;53.216;5.624;2024-03-25T11:51:43;10.15;;;3.10;;
53875;SDS011;39789;53.216;5.624;2024-03-25T11:54:11;9.23;;;2.83;;
53875;SDS011;39789;53.216;5.624;2024-03-25T11:56:37;12.30;;;3.30;;
53875;SDS011;39789;53.216;5.624;2024-03-25T11:59:03;8.57;;;2.75;;
53875;SDS011;39789;53.216;5.624;2024-03-25T12:01:29;9.75;;;2.70;;
53875;SDS011;39789;53.216;5.624;2024-03-25T12:03:55;12.07;;;3.08;;
53875;SDS011;39789;53.216;5.624;2024-03-25T12:06:21;9.05;;;2.80;;
53875;SDS011;39789;53.216;5.624;2024-03-25T12:08:47;9.02;;;2.67;;
53875;SDS011;39789;53.216;5.624;2024-03-25T12:11:34;8.55;;;3.03;;
53875;SDS011;39789;53.216;5.624;2024-03-25T12:14:00;6.60;;;2.70;;
53875;SDS011;39789;53.216;5.624;2024-03-25T12:16:26;7.38;;;2.75;;
53875;SDS011;39789;53.216;5.624;2024-03-25T12:18:52;8.02;;;2.80;;
53875;SDS011;39789;53.216;5.624;2024-03-25T12:21:19;9.38;;;2.78;;
53875;SDS011;39789;53.216;5.624;2024-03-25T12:23:45;9.13;;;2.70;;
53875;SDS011;39789;53.216;5.624;2024-03-25T12:26:12;8.95;;;2.72;;
53875;SDS011;39789;53.216;5.624;2024-03-25T12:28:42;13.13;;;3.00;;
53875;SDS011;39789;53.216;5.624;2024-03-25T12:31:07;9.38;;;3.10;;
53875;SDS011;39789;53.216;5.624;2024-03-25T12:33:46;6.63;;;2.13;;
53875;SDS011;39789;53.216;5.624;2024-03-25T12:36:12;5.88;;;2.25;;
53875;SDS011;39789;53.216;5.624;2024-03-25T12:38:38;10.93;;;2.75;;
53875;SDS011;39789;53.216;5.624;2024-03-25T12:41:04;6.03;;;2.25;;
53875;SDS011;39789;53.216;5.624;2024-03-25T12:43:35;8.07;;;2.20;;
53875;SDS011;39789;53.216;5.624;2024-03-25T12:46:01;4.53;;;1.80;;
53875;SDS011;39789;53.216;5.624;2024-03-25T12:48:29;5.47;;;1.92;;
53875;SDS011;39789;53.216;5.624;2024-03-25T12:50:54;7.20;;;2.45;;
53875;SDS011;39789;53.216;5.624;2024-03-25T12:53:20;5.15;;;1.90;;
53875;SDS011;39789;53.216;5.624;2024-03-25T12:55:46;9.30;;;2.65;;
53875;SDS011;39789;53.216;5.624;2024-03-25T12:58:13;4.05;;;2.00;;
53875;SDS011;39789;53.216;5.624;2024-03-25T13:00:39;5.43;;;2.10;;
53875;SDS011;39789;53.216;5.624;2024-03-25T13:03:05;9.90;;;2.50;;
53875;SDS011;39789;53.216;5.624;2024-03-25T13:05:33;7.93;;;2.45;;
53875;SDS011;39789;53.216;5.624;2024-03-25T13:07:59;6.82;;;2.40;;
53875;SDS011;39789;53.216;5.624;2024-03-25T13:10:25;6.88;;;2.33;;
53875;SDS011;39789;53.216;5.624;2024-03-25T13:12:51;8.65;;;2.10;;
53875;SDS011;39789;53.216;5.624;2024-03-25T13:15:17;9.95;;;2.30;;
53875;SDS011;39789;53.216;5.624;2024-03-25T13:17:43;7.70;;;2.05;;
53875;SDS011;39789;53.216;5.624;2024-03-25T13:20:09;9.05;;;2.45;;
53875;SDS011;39789;53.216;5.624;2024-03-25T13:22:39;7.20;;;1.85;;
53875;SDS011;39789;53.216;5.624;2024-03-25T13:25:05;9.20;;;2.13;;
53875;SDS011;39789;53.216;5.624;2024-03-25T13:27:31;8.20;;;2.50;;
53875;SDS011;39789;53.216;5.624;2024-03-25T13:29:57;8.05;;;2.22;;
53875;SDS011;39789;53.216;5.624;2024-03-25T13:32:23;8.48;;;2.40;;
53875;SDS011;39789;53.216;5.624;2024-03-25T13:34:50;8.05;;;2.47;;
53875;SDS011;39789;53.216;5.624;2024-03-25T13:37:16;6.40;;;2.17;;
53875;SDS011;39789;53.216;5.624;2024-03-25T13:39:42;7.25;;;2.35;;
53875;SDS011;39789;53.216;5.624;2024-03-25T13:42:07;6.68;;;2.13;;
53875;SDS011;39789;53.216;5.624;2024-03-25T13:44:33;5.28;;;2.30;;
53875;SDS011;39789;53.216;5.624;2024-03-25T13:46:59;5.32;;;2.10;;
53875;SDS011;39789;53.216;5.624;2024-03-25T13:49:25;6.43;;;2.20;;
53875;SDS011;39789;53.216;5.624;2024-03-25T13:51:57;5.97;;;2.25;;
53875;SDS011;39789;53.216;5.624;2024-03-25T13:54:28;6.25;;;2.25;;
53875;SDS011;39789;53.216;5.624;2024-03-25T13:56:55;7.50;;;2.10;;
53875;SDS011;39789;53.216;5.624;2024-03-25T13:59:21;7.07;;;2.40;;
53875;SDS011;39789;53.216;5.624;2024-03-25T14:01:47;5.50;;;2.03;;
53875;SDS011;39789;53.216;5.624;2024-03-25T14:04:13;6.20;;;2.40;;
53875;SDS011;39789;53.216;5.624;2024-03-25T14:06:39;7.43;;;2.20;;
53875;SDS011;39789;53.216;5.624;2024-03-25T14:09:05;7.20;;;2.28;;
53875;SDS011;39789;53.216;5.624;2024-03-25T14:11:33;4.90;;;1.80;;
53875;SDS011;39789;53.216;5.624;2024-03-25T14:14:00;7.72;;;2.35;;
53875;SDS011;39789;53.216;5.624;2024-03-25T14:16:25;9.40;;;2.30;;
53875;SDS011;39789;53.216;5.624;2024-03-25T14:18:51;8.77;;;2.35;;
53875;SDS011;39789;53.216;5.624;2024-03-25T14:21:17;6.82;;;1.95;;
53875;SDS011;39789;53.216;5.624;2024-03-25T14:23:43;5.53;;;1.92;;
53875;SDS011;39789;53.216;5.624;2024-03-25T14:26:11;5.70;;;1.92;;
53875;SDS011;39789;53.216;5.624;2024-03-25T14:28:37;6.07;;;2.25;;
53875;SDS011;39789;53.216;5.624;2024-03-25T14:31:03;8.30;;;2.47;;
53875;SDS011;39789;53.216;5.624;2024-03-25T14:33:29;5.47;;;2.00;;
53875;SDS011;39789;53.216;5.624;2024-03-25T14:35:55;6.82;;;2.38;;
53875;SDS011;39789;53.216;5.624;2024-03-25T14:38:21;5.75;;;2.10;;
53875;SDS011;39789;53.216;5.624;2024-03-25T14:40:47;6.10;;;1.92;;